createdAt,value
2023-01-07T00:02:12.611Z,101407.34
2023-01-07T00:04:40.658Z,101417.00
2023-01-07T00:07:10.527Z,101411.63
2023-01-07T00:09:39.840Z,101410.66
2023-01-07T00:12:07.822Z,101404.56
2023-01-07T00:14:37.117Z,101397.22
2023-01-07T00:17:05.237Z,101387.22
2023-01-07T00:19:33.174Z,101378.28
2023-01-07T00:22:01.139Z,101376.97
2023-01-07T00:24:29.074Z,101381.16
2023-01-07T00:26:57.032Z,101379.84
2023-01-07T00:29:25.328Z,101377.91
2023-01-07T00:31:54.762Z,101374.88
2023-01-07T00:34:24.156Z,101373.25
2023-01-07T00:37:12.279Z,101375.94
2023-01-07T00:39:41.988Z,101371.22
2023-01-07T00:42:38.756Z,101368.91
2023-01-07T00:45:07.881Z,101369.41
2023-01-07T00:47:37.335Z,101354.50
2023-01-07T00:50:05.846Z,101357.88
2023-01-07T00:52:33.878Z,101343.47
2023-01-07T00:55:01.946Z,101351.66
2023-01-07T00:57:29.970Z,101343.22
2023-01-07T00:59:59.193Z,101343.00
2023-01-07T01:02:27.209Z,101341.81
2023-01-07T01:04:56.555Z,101334.47
2023-01-07T01:07:24.479Z,101340.56
2023-01-07T01:09:52.541Z,101339.47
2023-01-07T01:12:20.671Z,101342.66
2023-01-07T01:14:49.094Z,101344.88
2023-01-07T01:17:17.092Z,101324.81
2023-01-07T01:19:45.143Z,101344.16
2023-01-07T01:22:14.715Z,101359.09
2023-01-07T01:27:10.674Z,101345.75
2023-01-07T01:29:38.705Z,101341.00
2023-01-07T01:32:06.996Z,101341.53
2023-01-07T01:34:35.039Z,101347.53
2023-01-07T01:37:03.260Z,101348.13
2023-01-07T01:39:32.656Z,101359.38
2023-01-07T01:42:01.477Z,101359.16
2023-01-07T01:44:42.712Z,101365.00
2023-01-07T01:47:21.232Z,101358.66
2023-01-07T01:49:55.234Z,101354.47
2023-01-07T01:52:30.837Z,101356.69
2023-01-07T01:55:02.972Z,101353.13
2023-01-07T01:57:34.195Z,101351.78
2023-01-07T02:00:03.026Z,101336.38
2023-01-07T02:02:45.928Z,101333.69
2023-01-07T02:05:15.095Z,101347.03
2023-01-07T02:07:43.184Z,101340.16
2023-01-07T02:10:16.104Z,101358.16
2023-01-07T02:12:57.663Z,101354.97
2023-01-07T02:15:33.616Z,101350.94
2023-01-07T02:18:25.694Z,101344.94
2023-01-07T02:21:17.940Z,101346.06
2023-01-07T02:24:32.702Z,101350.22
2023-01-07T02:27:40.111Z,101340.78
2023-01-07T02:30:58.783Z,101328.63
2023-01-07T02:33:47.761Z,101324.47
2023-01-07T02:36:28.652Z,101329.84
2023-01-07T02:39:16.909Z,101315.16
2023-01-07T02:41:52.314Z,101323.72
2023-01-07T02:44:29.406Z,101326.28
2023-01-07T02:47:05.131Z,101323.59
2023-01-07T02:49:35.801Z,101319.06
2023-01-07T02:52:23.429Z,101312.97
2023-01-07T02:54:56.159Z,101305.50
2023-01-07T02:57:57.122Z,101304.16
2023-01-07T03:00:39.686Z,101285.41
2023-01-07T03:03:30.230Z,101291.56
2023-01-07T03:06:12.710Z,101288.72
2023-01-07T03:08:53.979Z,101295.94
2023-01-07T03:11:25.801Z,101274.28
2023-01-07T03:13:59.848Z,101271.47
2023-01-07T03:16:33.652Z,101284.84
2023-01-07T03:19:05.140Z,101285.91
2023-01-07T03:21:36.147Z,101283.22
2023-01-07T03:24:04.452Z,101278.81
2023-01-07T03:26:34.522Z,101262.19
2023-01-07T03:29:05.729Z,101236.75
2023-01-07T03:31:38.549Z,101262.44
2023-01-07T03:34:09.422Z,101258.00
2023-01-07T03:36:43.080Z,101261.56
2023-01-07T03:39:13.549Z,101262.44
2023-01-07T03:42:00.310Z,101269.66
2023-01-07T03:44:28.824Z,101259.84
2023-01-07T03:46:57.768Z,101250.78
2023-01-07T03:49:26.131Z,101249.81
2023-01-07T03:51:56.095Z,101250.56
2023-01-07T03:54:24.553Z,101243.34
2023-01-07T03:56:52.803Z,101250.41
2023-01-07T03:59:20.954Z,101233.53
2023-01-07T04:01:49.376Z,101242.47
2023-01-07T04:04:17.709Z,101232.69
2023-01-07T04:06:45.797Z,101237.19
2023-01-07T04:09:18.756Z,101232.44
2023-01-07T04:11:47.381Z,101238.53
2023-01-07T04:14:16.101Z,101239.31
2023-01-07T04:16:44.357Z,101232.69
2023-01-07T04:19:12.606Z,101239.69
2023-01-07T04:21:40.767Z,101245.69
2023-01-07T04:24:09.618Z,101238.19
2023-01-07T04:26:39.442Z,101245.88
2023-01-07T04:29:07.737Z,101237.47
2023-01-07T04:31:36.093Z,101238.41
2023-01-07T04:34:04.039Z,101234.50
2023-01-07T04:36:32.322Z,101242.31
2023-01-07T04:39:00.367Z,101235.94
2023-01-07T04:41:28.825Z,101235.56
2023-01-07T04:43:59.492Z,101228.94
2023-01-07T04:46:27.729Z,101230.53
2023-01-07T04:48:55.901Z,101231.00
2023-01-07T04:51:25.728Z,101220.22
2023-01-07T04:53:54.001Z,101230.13
2023-01-07T04:56:22.074Z,101222.66
2023-01-07T04:58:50.413Z,101215.31
2023-01-07T05:01:20.721Z,101218.72
2023-01-07T05:03:49.440Z,101211.50
2023-01-07T05:06:18.942Z,101206.97
2023-01-07T05:08:47.249Z,101204.28
2023-01-07T05:11:21.464Z,101208.41
2023-01-07T05:13:52.313Z,101202.16
2023-01-07T05:16:22.703Z,101203.88
2023-01-07T05:18:52.681Z,101198.63
2023-01-07T05:21:20.763Z,101199.59
2023-01-07T05:23:49.063Z,101193.25
2023-01-07T05:26:17.295Z,101188.56
2023-01-07T05:28:45.531Z,101181.91
2023-01-07T05:31:13.928Z,101193.41
2023-01-07T05:33:43.377Z,101188.03
2023-01-07T05:36:11.833Z,101194.41
2023-01-07T05:38:40.340Z,101196.09
2023-01-07T05:41:08.789Z,101204.81
2023-01-07T05:43:37.664Z,101207.66
2023-01-07T05:46:06.138Z,101204.81
2023-01-07T05:48:34.132Z,101209.13
2023-01-07T05:51:03.466Z,101211.69
2023-01-07T05:53:31.449Z,101208.72
2023-01-07T05:55:59.514Z,101209.19
2023-01-07T05:58:28.568Z,101212.63
2023-01-07T06:00:57.102Z,101216.19
2023-01-07T06:03:25.125Z,101220.72
2023-01-07T06:05:53.150Z,101217.16
2023-01-07T06:08:22.622Z,101212.38
2023-01-07T06:10:50.623Z,101218.59
2023-01-07T06:13:18.707Z,101220.47
2023-01-07T06:15:46.677Z,101224.84
2023-01-07T06:18:14.622Z,101231.25
2023-01-07T06:20:42.489Z,101223.97
2023-01-07T06:23:10.499Z,101222.03
2023-01-07T06:25:39.754Z,101234.50
2023-01-07T06:28:07.747Z,101229.13
2023-01-07T06:30:35.755Z,101224.44
2023-01-07T06:33:05.400Z,101228.00
2023-01-07T06:35:33.686Z,101227.03
2023-01-07T06:38:02.181Z,101219.81
2023-01-07T06:40:30.184Z,101221.03
2023-01-07T06:42:59.775Z,101229.84
2023-01-07T06:45:27.984Z,101226.41
2023-01-07T06:47:57.371Z,101223.97
2023-01-07T06:50:25.650Z,101228.25
2023-01-07T06:52:53.699Z,101230.94
2023-01-07T06:55:21.616Z,101236.22
2023-01-07T06:57:49.630Z,101235.38
2023-01-07T07:00:19.279Z,101229.84
2023-01-07T07:02:47.205Z,101231.97
2023-01-07T07:05:15.444Z,101245.44
2023-01-07T07:07:43.491Z,101233.78
2023-01-07T07:10:12.147Z,101232.06
2023-01-07T07:12:40.403Z,101236.34
2023-01-07T07:15:09.903Z,101231.81
2023-01-07T07:17:39.304Z,101235.38
2023-01-07T07:20:08.590Z,101233.66
2023-01-07T07:22:36.644Z,101236.22
2023-01-07T07:25:05.262Z,101244.06
2023-01-07T07:27:33.286Z,101238.53
2023-01-07T07:30:01.213Z,101243.91
2023-01-07T07:32:29.332Z,101244.06
2023-01-07T07:34:58.724Z,101244.06
2023-01-07T07:37:26.847Z,101244.31
2023-01-07T07:39:54.845Z,101243.31
2023-01-07T07:42:22.987Z,101243.31
2023-01-07T07:44:51.018Z,101237.22
2023-01-07T07:47:19.612Z,101238.06
2023-01-07T07:49:47.822Z,101234.41
2023-01-07T07:52:17.319Z,101225.19
2023-01-07T07:54:45.282Z,101226.31
2023-01-07T07:57:13.322Z,101232.53
2023-01-07T07:59:41.363Z,101234.97
2023-01-07T08:02:10.234Z,101232.28
2023-01-07T08:04:38.174Z,101229.72
2023-01-07T08:07:06.279Z,101228.00
2023-01-07T08:09:35.703Z,101227.13
2023-01-07T08:12:03.723Z,101225.44
2023-01-07T08:14:31.751Z,101227.44
2023-01-07T08:16:59.740Z,101222.03
2023-01-07T08:19:27.713Z,101225.31
2023-01-07T08:21:55.668Z,101233.28
2023-01-07T08:24:23.789Z,101231.41
2023-01-07T08:26:55.591Z,101230.44
2023-01-07T08:29:24.798Z,101225.75
2023-01-07T08:31:53.380Z,101225.50
2023-01-07T08:34:21.373Z,101230.91
2023-01-07T08:36:49.295Z,101241.69
2023-01-07T08:39:17.277Z,101227.34
2023-01-07T08:41:45.252Z,101227.34
2023-01-07T08:44:14.711Z,101222.69
2023-01-07T08:46:42.983Z,101218.28
2023-01-07T08:49:11.151Z,101212.88
2023-01-07T08:51:39.068Z,101203.34
2023-01-07T08:54:07.108Z,101199.91
2023-01-07T08:56:35.069Z,101208.88
2023-01-07T08:59:03.165Z,101203.47
2023-01-07T09:01:32.625Z,101198.94
2023-01-07T09:04:00.686Z,101203.34
2023-01-07T09:06:28.688Z,101205.91
2023-01-07T09:08:56.847Z,101197.69
2023-01-07T09:11:25.195Z,101211.91
2023-01-07T09:13:53.127Z,101196.44
2023-01-07T09:16:21.186Z,101197.16
2023-01-07T09:18:51.494Z,101174.66
2023-01-07T09:21:19.541Z,101196.44
2023-01-07T09:23:47.504Z,101195.59
2023-01-07T09:26:15.558Z,101199.13
2023-01-07T09:28:43.597Z,101207.09
2023-01-07T09:31:11.787Z,101190.03
2023-01-07T09:33:40.912Z,101205.41
2023-01-07T09:36:10.493Z,101203.25
2023-01-07T09:38:38.577Z,101210.50
2023-01-07T09:41:13.714Z,101210.50
2023-01-07T09:43:59.732Z,101203.97
2023-01-07T09:46:30.414Z,101206.81
2023-01-07T09:49:03.511Z,101203.97
2023-01-07T09:51:37.478Z,101186.97
2023-01-07T09:54:10.098Z,101190.38
2023-01-07T09:56:41.077Z,101186.22
2023-01-07T09:59:12.285Z,101193.94
2023-01-07T10:01:47.850Z,101198.22
2023-01-07T10:04:30.397Z,101207.72
2023-01-07T10:07:11.994Z,101197.94
2023-01-07T10:09:51.711Z,101181.94
2023-01-07T10:12:27.760Z,101194.91
2023-01-07T10:15:18.025Z,101201.28
2023-01-07T10:17:59.682Z,101195.88
2023-01-07T10:20:34.626Z,101194.06
2023-01-07T10:23:09.009Z,101199.44
2023-01-07T10:25:42.165Z,101206.56
2023-01-07T10:28:16.717Z,101209.25
2023-01-07T10:30:48.231Z,101208.53
2023-01-07T10:33:21.183Z,101213.09
2023-01-07T10:35:57.187Z,101222.88
2023-01-07T10:38:26.790Z,101217.63
2023-01-07T10:40:58.138Z,101214.19
2023-01-07T10:43:42.680Z,101206.97
2023-01-07T10:46:22.873Z,101209.78
2023-01-07T10:49:38.239Z,101195.72
2023-01-07T10:52:30.140Z,101205.50
2023-01-07T10:55:12.946Z,101198.13
2023-01-07T10:57:41.431Z,101198.59
2023-01-07T11:00:15.578Z,101202.34
2023-01-07T11:02:45.708Z,101198.78
2023-01-07T11:05:14.946Z,101184.72
2023-01-07T11:07:46.753Z,101204.38
2023-01-07T11:10:18.798Z,101202.78
2023-01-07T11:12:50.746Z,101181.47
2023-01-07T11:15:24.011Z,101184.16
2023-01-07T11:17:57.238Z,101179.06
2023-01-07T11:20:45.998Z,101183.72
2023-01-07T11:23:30.870Z,101181.03
2023-01-07T11:26:16.748Z,101179.19
2023-01-07T11:28:51.833Z,101174.25
2023-01-07T11:31:20.421Z,101175.34
2023-01-07T11:34:01.511Z,101177.19
2023-01-07T11:36:41.711Z,101142.63
2023-01-07T11:39:19.622Z,101158.19
2023-01-07T11:41:58.027Z,101171.69
2023-01-07T11:44:27.141Z,101162.03
2023-01-07T11:46:56.050Z,101154.63
2023-01-07T11:49:27.710Z,101165.16
2023-01-07T11:51:56.179Z,101162.59
2023-01-07T11:54:26.309Z,101154.50
2023-01-07T11:57:12.627Z,101132.88
2023-01-07T11:59:40.692Z,101154.63
2023-01-07T12:02:24.663Z,101160.63
2023-01-07T12:04:52.736Z,101156.81
2023-01-07T12:07:21.777Z,101095.88
2023-01-07T12:09:49.815Z,101154.28
2023-01-07T12:12:34.585Z,101152.78
2023-01-07T12:15:06.231Z,101136.44
2023-01-07T12:17:36.335Z,101137.31
2023-01-07T12:20:39.554Z,101149.81
2023-01-07T12:23:22.263Z,101143.16
2023-01-07T12:26:00.735Z,101146.47
2023-01-07T12:28:46.501Z,101145.75
2023-01-07T12:31:22.972Z,101149.88
2023-01-07T12:34:05.753Z,101149.78
2023-01-07T12:36:40.382Z,101150.91
2023-01-07T12:39:15.596Z,101149.34
2023-01-07T12:41:50.982Z,101156.03
2023-01-07T12:44:22.985Z,101156.03
2023-01-07T12:47:30.563Z,101154.53
2023-01-07T12:49:56.696Z,101150.69
2023-01-07T12:52:34.177Z,101148.69
2023-01-07T12:55:07.801Z,101146.00
2023-01-07T12:57:38.376Z,101153.94
2023-01-07T13:00:17.009Z,101144.84
2023-01-07T13:02:54.507Z,101138.59
2023-01-07T13:05:26.142Z,101147.13
2023-01-07T13:07:58.514Z,101139.56
2023-01-07T13:10:29.413Z,101149.38
2023-01-07T13:13:02.277Z,101128.06
2023-01-07T13:15:34.107Z,101137.72
2023-01-07T13:18:13.633Z,101138.00
2023-01-07T13:20:53.931Z,101147.22
2023-01-07T13:23:27.055Z,101132.00
2023-01-07T13:26:13.335Z,101131.91
2023-01-07T13:28:58.679Z,101120.81
2023-01-07T13:31:43.210Z,101125.22
2023-01-07T13:34:22.241Z,101117.38
2023-01-07T13:37:06.909Z,101119.25
2023-01-07T13:39:49.835Z,101115.41
2023-01-07T13:42:30.258Z,101118.94
2023-01-07T13:45:09.197Z,101125.22
2023-01-07T13:47:46.428Z,101126.94
2023-01-07T13:50:36.298Z,101118.56
2023-01-07T13:53:06.369Z,101117.13
2023-01-07T13:55:40.924Z,101125.44
2023-01-07T13:58:41.253Z,101125.56
2023-01-07T14:01:11.040Z,101116.19
2023-01-07T14:03:46.862Z,101116.63
2023-01-07T14:06:40.644Z,101107.53
2023-01-07T14:09:39.690Z,101116.47
2023-01-07T14:12:47.121Z,101119.91
2023-01-07T14:15:49.288Z,101116.06
2023-01-07T14:19:02.919Z,101126.88
2023-01-07T14:21:46.149Z,101126.88
2023-01-07T14:24:46.003Z,101120.31
2023-01-07T14:27:45.048Z,101128.44
2023-01-07T14:30:21.618Z,101122.72
2023-01-07T14:32:58.572Z,101100.56
2023-01-07T14:35:34.198Z,101115.47
2023-01-07T14:38:02.466Z,101119.19
2023-01-07T14:41:05.473Z,101117.47
2023-01-07T14:43:49.255Z,101110.66
2023-01-07T14:46:54.027Z,101108.63
2023-01-07T14:49:45.770Z,101104.34
2023-01-07T14:52:32.287Z,101108.47
2023-01-07T14:55:23.289Z,101131.75
2023-01-07T14:58:05.883Z,101136.72
2023-01-07T15:00:54.419Z,101136.44
2023-01-07T15:04:04.364Z,101121.41
2023-01-07T15:06:35.966Z,101122.81
2023-01-07T15:09:27.728Z,101123.16
2023-01-07T15:12:15.531Z,101113.06
2023-01-07T15:15:04.350Z,101110.34
2023-01-07T15:17:32.631Z,101109.50
2023-01-07T15:20:05.713Z,101124.56
2023-01-07T15:22:56.319Z,101118.03
2023-01-07T15:25:44.144Z,101120.88
2023-01-07T15:28:19.877Z,101117.44
2023-01-07T15:30:57.120Z,101121.16
2023-01-07T15:33:39.811Z,101131.81
2023-01-07T15:36:12.580Z,101121.16
2023-01-07T15:38:45.921Z,101113.91
2023-01-07T15:41:31.764Z,101121.00
2023-01-07T15:44:02.165Z,101117.88
2023-01-07T15:46:31.966Z,101113.50
2023-01-07T15:49:17.499Z,101099.97
2023-01-07T15:51:47.991Z,101096.66
2023-01-07T15:54:34.855Z,101110.06
2023-01-07T15:57:08.370Z,101111.16
2023-01-07T15:59:39.718Z,101114.13
2023-01-07T16:02:19.585Z,101112.44
2023-01-07T16:04:49.244Z,101123.38
2023-01-07T16:07:25.153Z,101113.44
2023-01-07T16:09:53.721Z,101108.59
2023-01-07T16:12:35.145Z,101105.91
2023-01-07T16:15:20.199Z,101107.88
2023-01-07T16:17:51.656Z,101115.25
2023-01-07T16:20:25.432Z,101100.03
2023-01-07T16:23:04.174Z,101108.28
2023-01-07T16:25:44.065Z,101113.84
2023-01-07T16:28:17.498Z,101111.41
2023-01-07T16:30:46.633Z,101113.69
2023-01-07T16:33:18.640Z,101118.94
2023-01-07T16:35:50.332Z,101093.63
2023-01-07T16:38:20.602Z,101111.69
2023-01-07T16:40:49.212Z,101103.75
2023-01-07T16:43:34.826Z,101094.63
2023-01-07T16:46:20.802Z,101103.59
2023-01-07T16:49:09.775Z,101091.22
2023-01-07T16:51:41.430Z,101097.50
2023-01-07T16:54:22.937Z,101088.69
2023-01-07T16:56:52.681Z,101084.38
2023-01-07T16:59:23.760Z,101095.91
2023-01-07T17:01:52.117Z,101086.97
2023-01-07T17:04:24.259Z,101078.97
2023-01-07T17:06:52.753Z,101082.53
2023-01-07T17:09:24.123Z,101071.03
2023-01-07T17:11:54.209Z,101073.88
2023-01-07T17:14:51.599Z,101065.47
2023-01-07T17:17:25.004Z,101071.31
2023-01-07T17:19:59.260Z,101067.03
2023-01-07T17:22:32.689Z,101078.28
2023-01-07T17:25:03.610Z,101078.28
2023-01-07T17:27:32.897Z,101082.69
2023-01-07T17:30:05.403Z,101076.44
2023-01-07T17:32:37.559Z,101073.72
2023-01-07T17:35:06.023Z,101086.38
2023-01-07T17:37:36.959Z,101081.81
2023-01-07T17:40:05.507Z,101072.00
2023-01-07T17:42:52.216Z,101080.25
2023-01-07T17:45:23.478Z,101083.78
2023-01-07T17:47:52.785Z,101092.91
2023-01-07T17:50:21.774Z,101085.50
2023-01-07T17:52:51.518Z,101085.50
2023-01-07T17:55:23.066Z,101082.69
2023-01-07T17:57:51.050Z,101078.13
2023-01-07T18:00:23.080Z,101079.13
2023-01-07T18:02:52.395Z,101064.78
2023-01-07T18:05:22.052Z,101056.66
2023-01-07T18:07:51.397Z,101062.94
2023-01-07T18:10:22.605Z,101057.66
2023-01-07T18:12:49.592Z,101055.97
2023-01-07T18:15:24.775Z,101062.78
2023-01-07T18:17:53.292Z,101061.22
2023-01-07T18:20:23.336Z,101065.47
2023-01-07T18:22:51.307Z,101059.38
2023-01-07T18:25:21.218Z,101056.78
2023-01-07T18:27:52.863Z,101028.66
2023-01-07T18:30:23.677Z,101048.56
2023-01-07T18:32:53.988Z,101039.78
2023-01-07T18:35:22.749Z,101045.16
2023-01-07T18:37:51.650Z,101056.53
2023-01-07T18:40:20.270Z,101045.72
2023-01-07T18:42:48.368Z,101050.13
2023-01-07T18:45:18.072Z,101059.09
2023-01-07T18:47:47.730Z,101051.00
2023-01-07T18:50:16.405Z,101042.03
2023-01-07T18:52:44.671Z,101043.19
2023-01-07T18:55:13.094Z,101051.28
2023-01-07T18:57:41.083Z,101040.47
2023-01-07T19:00:10.370Z,101048.56
2023-01-07T19:02:38.401Z,101044.91
2023-01-07T19:05:08.736Z,101042.91
2023-01-07T19:07:36.748Z,101037.78
2023-01-07T19:10:05.285Z,101038.91
2023-01-07T19:12:33.325Z,101030.09
2023-01-07T19:15:01.307Z,101025.69
2023-01-07T19:17:29.309Z,101023.16
2023-01-07T19:19:57.287Z,101018.56
2023-01-07T19:22:26.662Z,101014.75
2023-01-07T19:24:56.681Z,101008.50
2023-01-07T19:27:24.848Z,101005.66
2023-01-07T19:29:52.809Z,101012.19
2023-01-07T19:32:20.760Z,101007.78
2023-01-07T19:34:49.691Z,101006.22
2023-01-07T19:37:17.666Z,101018.03
2023-01-07T19:39:47.037Z,101017.16
2023-01-07T19:42:15.067Z,101013.59
2023-01-07T19:44:43.049Z,101010.63
2023-01-07T19:47:11.048Z,101018.72
2023-01-07T19:49:39.025Z,101007.94
2023-01-07T19:52:07.139Z,101014.31
2023-01-07T19:54:35.432Z,101016.03
2023-01-07T19:57:05.015Z,101012.34
2023-01-07T19:59:34.009Z,101007.78
2023-01-07T20:02:02.640Z,101001.41
2023-01-07T20:04:31.178Z,101012.19
2023-01-07T20:06:59.391Z,101015.03
2023-01-07T20:09:27.386Z,101010.47
2023-01-07T20:11:55.403Z,101007.78
2023-01-07T20:14:24.738Z,101002.25
2023-01-07T20:16:52.861Z,100997.84
2023-01-07T20:19:23.354Z,100991.59
2023-01-07T20:21:51.383Z,100992.44
2023-01-07T20:24:19.368Z,100997.72
2023-01-07T20:26:47.775Z,100992.44
2023-01-07T20:29:15.747Z,100996.00
2023-01-07T20:31:45.661Z,100994.16
2023-01-07T20:34:13.884Z,100996.16
2023-01-07T20:36:41.885Z,101001.56
2023-01-07T20:39:09.870Z,100999.84
2023-01-07T20:41:39.015Z,100974.97
2023-01-07T20:44:09.284Z,100989.03
2023-01-07T20:46:39.108Z,100962.16
2023-01-07T20:49:10.102Z,100980.78
2023-01-07T20:51:38.540Z,100980.09
2023-01-07T20:54:06.632Z,100968.31
2023-01-07T20:56:34.887Z,100973.13
2023-01-07T20:59:03.994Z,100965.19
2023-01-07T21:01:32.144Z,100967.88
2023-01-07T21:04:01.839Z,100967.03
2023-01-07T21:06:31.813Z,100967.88
2023-01-07T21:09:00.104Z,100965.31
2023-01-07T21:11:28.156Z,100966.16
2023-01-07T21:13:56.536Z,100956.38
2023-01-07T21:16:25.860Z,100953.53
2023-01-07T21:18:53.948Z,100953.53
2023-01-07T21:21:25.054Z,100947.16
2023-01-07T21:23:54.883Z,100961.34
2023-01-07T21:26:23.492Z,100944.28
2023-01-07T21:28:56.047Z,100945.16
2023-01-07T21:31:24.861Z,100944.13
2023-01-07T21:33:56.103Z,100946.28
2023-01-07T21:36:24.674Z,100948.97
2023-01-07T21:38:56.919Z,100946.84
2023-01-07T21:41:25.850Z,100946.13
2023-01-07T21:43:54.051Z,100938.63
2023-01-07T21:46:23.011Z,100928.53
2023-01-07T21:48:51.852Z,100939.75
2023-01-07T21:51:22.263Z,100937.19
2023-01-07T21:53:52.051Z,100932.38
2023-01-07T21:56:21.521Z,100930.38
2023-01-07T21:58:50.180Z,100916.72
2023-01-07T22:01:19.562Z,100920.16
2023-01-07T22:03:50.134Z,100921.84
2023-01-07T22:06:20.998Z,100911.75
2023-01-07T22:08:49.964Z,100921.56
2023-01-07T22:11:19.012Z,100919.84
2023-01-07T22:13:52.071Z,100918.00
2023-01-07T22:16:20.419Z,100919.31
2023-01-07T22:18:48.946Z,100919.16
2023-01-07T22:21:17.933Z,100912.50
2023-01-07T22:23:46.603Z,100904.50
2023-01-07T22:26:15.938Z,100907.09
2023-01-07T22:28:46.881Z,100907.78
2023-01-07T22:31:19.894Z,100903.94
2023-01-07T22:33:48.071Z,100899.41
2023-01-07T22:36:18.640Z,100893.75
2023-01-07T22:38:46.673Z,100898.00
2023-01-07T22:41:14.618Z,100889.03
2023-01-07T22:43:42.913Z,100891.59
2023-01-07T22:46:16.722Z,100883.19
2023-01-07T22:48:46.391Z,100888.31
2023-01-07T22:51:20.032Z,100885.63
2023-01-07T22:53:48.474Z,100882.06
2023-01-07T22:56:16.732Z,100881.78
2023-01-07T22:58:44.723Z,100879.78
2023-01-07T23:01:14.462Z,100838.59
2023-01-07T23:03:44.085Z,100875.06
2023-01-07T23:06:15.459Z,100871.69
2023-01-07T23:08:43.926Z,100866.56
2023-01-07T23:11:32.119Z,100865.88
2023-01-07T23:14:00.490Z,100861.59
2023-01-07T23:16:28.557Z,100859.75
2023-01-07T23:18:56.591Z,100858.03
2023-01-07T23:21:26.038Z,100857.19
2023-01-07T23:23:54.037Z,100852.81
2023-01-07T23:26:22.070Z,100851.38
2023-01-07T23:28:50.023Z,100851.09
2023-01-07T23:31:18.247Z,100840.28
2023-01-07T23:33:46.319Z,100843.69
2023-01-07T23:36:14.333Z,100836.28
2023-01-07T23:38:43.796Z,100844.09
2023-01-07T23:41:13.145Z,100828.03
2023-01-07T23:43:41.094Z,100821.81
2023-01-07T23:46:09.420Z,100822.50
2023-01-07T23:48:39.071Z,100818.94
2023-01-07T23:51:09.285Z,100808.00
2023-01-07T23:53:37.319Z,100810.69
2023-01-07T23:56:08.394Z,100803.91
2023-01-07T23:58:37.862Z,100794.50
